sensor_id;sensor_type;location;lat;lon;timestamp;P1;durP1;ratioP1;P2;durP2;ratioP2
12976;SDS011;6553;48.412;9.514;2023-07-22T00:01:02;1.55;;;1.45;;
12976;SDS011;6553;48.412;9.514;2023-07-22T00:03:27;1.48;;;1.38;;
12976;SDS011;6553;48.412;9.514;2023-07-22T00:06:03;1.50;;;1.40;;
12976;SDS011;6553;48.412;9.514;2023-07-22T00:08:31;1.25;;;1.15;;
12976;SDS011;6553;48.412;9.514;2023-07-22T00:10:59;1.20;;;1.10;;
12976;SDS011;6553;48.412;9.514;2023-07-22T00:13:25;2.03;;;1.52;;
12976;SDS011;6553;48.412;9.514;2023-07-22T00:15:54;1.50;;;1.40;;
12976;SDS011;6553;48.412;9.514;2023-07-22T00:18:22;1.40;;;1.30;;
12976;SDS011;6553;48.412;9.514;2023-07-22T00:20:49;1.52;;;1.42;;
12976;SDS011;6553;48.412;9.514;2023-07-22T00:23:15;1.13;;;1.10;;
12976;SDS011;6553;48.412;9.514;2023-07-22T00:25:42;2.05;;;1.33;;
12976;SDS011;6553;48.412;9.514;2023-07-22T00:28:08;1.50;;;1.40;;
12976;SDS011;6553;48.412;9.514;2023-07-22T00:30:33;1.63;;;1.20;;
12976;SDS011;6553;48.412;9.514;2023-07-22T00:33:00;1.50;;;1.40;;
12976;SDS011;6553;48.412;9.514;2023-07-22T00:35:26;1.45;;;1.35;;
12976;SDS011;6553;48.412;9.514;2023-07-22T00:37:52;1.73;;;1.50;;
12976;SDS011;6553;48.412;9.514;2023-07-22T00:40:18;1.30;;;1.20;;
12976;SDS011;6553;48.412;9.514;2023-07-22T00:42:44;1.30;;;1.20;;
12976;SDS011;6553;48.412;9.514;2023-07-22T00:45:10;1.55;;;1.45;;
12976;SDS011;6553;48.412;9.514;2023-07-22T00:47:37;1.50;;;1.40;;
12976;SDS011;6553;48.412;9.514;2023-07-22T00:50:04;1.67;;;1.58;;
12976;SDS011;6553;48.412;9.514;2023-07-22T00:52:33;1.48;;;1.38;;
12976;SDS011;6553;48.412;9.514;2023-07-22T00:54:59;1.50;;;1.40;;
12976;SDS011;6553;48.412;9.514;2023-07-22T00:57:27;1.45;;;1.20;;
12976;SDS011;6553;48.412;9.514;2023-07-22T00:59:54;1.60;;;1.30;;
12976;SDS011;6553;48.412;9.514;2023-07-22T01:02:20;1.20;;;1.10;;
12976;SDS011;6553;48.412;9.514;2023-07-22T01:04:46;1.50;;;1.40;;
12976;SDS011;6553;48.412;9.514;2023-07-22T01:07:13;1.45;;;1.35;;
12976;SDS011;6553;48.412;9.514;2023-07-22T01:09:40;1.35;;;1.30;;
12976;SDS011;6553;48.412;9.514;2023-07-22T01:12:08;1.50;;;1.40;;
12976;SDS011;6553;48.412;9.514;2023-07-22T01:14:35;1.38;;;1.27;;
12976;SDS011;6553;48.412;9.514;2023-07-22T01:17:04;1.40;;;1.30;;
12976;SDS011;6553;48.412;9.514;2023-07-22T01:19:33;1.50;;;1.40;;
12976;SDS011;6553;48.412;9.514;2023-07-22T01:22:01;1.40;;;1.30;;
12976;SDS011;6553;48.412;9.514;2023-07-22T01:24:31;1.20;;;1.10;;
12976;SDS011;6553;48.412;9.514;2023-07-22T01:26:57;1.42;;;1.33;;
12976;SDS011;6553;48.412;9.514;2023-07-22T01:29:23;1.40;;;1.30;;
12976;SDS011;6553;48.412;9.514;2023-07-22T01:31:51;1.27;;;1.17;;
12976;SDS011;6553;48.412;9.514;2023-07-22T01:34:20;1.42;;;1.33;;
12976;SDS011;6553;48.412;9.514;2023-07-22T01:36:47;1.80;;;1.30;;
12976;SDS011;6553;48.412;9.514;2023-07-22T01:39:14;1.38;;;1.10;;
12976;SDS011;6553;48.412;9.514;2023-07-22T01:41:44;1.95;;;1.30;;
12976;SDS011;6553;48.412;9.514;2023-07-22T01:44:10;1.52;;;1.42;;
12976;SDS011;6553;48.412;9.514;2023-07-22T01:46:38;1.40;;;1.30;;
12976;SDS011;6553;48.412;9.514;2023-07-22T01:49:05;1.42;;;1.33;;
12976;SDS011;6553;48.412;9.514;2023-07-22T01:51:36;1.50;;;1.40;;
12976;SDS011;6553;48.412;9.514;2023-07-22T01:54:08;1.20;;;1.10;;
12976;SDS011;6553;48.412;9.514;2023-07-22T01:56:35;1.40;;;1.30;;
12976;SDS011;6553;48.412;9.514;2023-07-22T01:59:01;1.10;;;1.10;;
12976;SDS011;6553;48.412;9.514;2023-07-22T02:01:27;1.38;;;1.27;;
12976;SDS011;6553;48.412;9.514;2023-07-22T02:03:54;1.23;;;1.13;;
12976;SDS011;6553;48.412;9.514;2023-07-22T02:06:20;1.27;;;1.17;;
12976;SDS011;6553;48.412;9.514;2023-07-22T02:08:46;1.50;;;1.40;;
12976;SDS011;6553;48.412;9.514;2023-07-22T02:11:12;1.60;;;1.50;;
12976;SDS011;6553;48.412;9.514;2023-07-22T02:13:38;1.50;;;1.40;;
12976;SDS011;6553;48.412;9.514;2023-07-22T02:16:04;1.50;;;1.40;;
12976;SDS011;6553;48.412;9.514;2023-07-22T02:18:30;1.50;;;1.23;;
12976;SDS011;6553;48.412;9.514;2023-07-22T02:20:56;1.70;;;1.60;;
12976;SDS011;6553;48.412;9.514;2023-07-22T02:23:23;2.03;;;1.40;;
12976;SDS011;6553;48.412;9.514;2023-07-22T02:25:50;1.40;;;1.30;;
12976;SDS011;6553;48.412;9.514;2023-07-22T02:28:17;1.40;;;1.30;;
12976;SDS011;6553;48.412;9.514;2023-07-22T02:30:46;1.45;;;1.33;;
12976;SDS011;6553;48.412;9.514;2023-07-22T02:33:14;1.50;;;1.40;;
12976;SDS011;6553;48.412;9.514;2023-07-22T02:35:41;1.02;;;1.02;;
12976;SDS011;6553;48.412;9.514;2023-07-22T02:38:08;1.50;;;1.40;;
12976;SDS011;6553;48.412;9.514;2023-07-22T02:40:34;1.33;;;1.20;;
12976;SDS011;6553;48.412;9.514;2023-07-22T02:43:01;1.45;;;1.35;;
12976;SDS011;6553;48.412;9.514;2023-07-22T02:45:27;1.60;;;1.50;;
12976;SDS011;6553;48.412;9.514;2023-07-22T02:47:53;1.40;;;1.38;;
12976;SDS011;6553;48.412;9.514;2023-07-22T02:50:19;1.20;;;1.10;;
12976;SDS011;6553;48.412;9.514;2023-07-22T02:52:45;1.40;;;1.30;;
12976;SDS011;6553;48.412;9.514;2023-07-22T02:55:12;1.40;;;1.30;;
12976;SDS011;6553;48.412;9.514;2023-07-22T02:57:40;1.70;;;1.60;;
12976;SDS011;6553;48.412;9.514;2023-07-22T03:00:07;1.50;;;1.40;;
12976;SDS011;6553;48.412;9.514;2023-07-22T03:02:37;1.45;;;1.35;;
12976;SDS011;6553;48.412;9.514;2023-07-22T03:05:07;1.40;;;1.30;;
12976;SDS011;6553;48.412;9.514;2023-07-22T03:07:34;2.20;;;1.45;;
12976;SDS011;6553;48.412;9.514;2023-07-22T03:10:00;1.20;;;1.10;;
12976;SDS011;6553;48.412;9.514;2023-07-22T03:12:26;1.67;;;1.58;;
12976;SDS011;6553;48.412;9.514;2023-07-22T03:14:52;1.33;;;1.23;;
12976;SDS011;6553;48.412;9.514;2023-07-22T03:17:18;1.50;;;1.40;;
12976;SDS011;6553;48.412;9.514;2023-07-22T03:19:44;1.30;;;1.20;;
12976;SDS011;6553;48.412;9.514;2023-07-22T03:22:13;1.20;;;1.10;;
12976;SDS011;6553;48.412;9.514;2023-07-22T03:24:47;1.40;;;1.30;;
12976;SDS011;6553;48.412;9.514;2023-07-22T03:27:13;1.17;;;1.13;;
12976;SDS011;6553;48.412;9.514;2023-07-22T03:29:41;1.70;;;1.60;;
12976;SDS011;6553;48.412;9.514;2023-07-22T03:32:07;1.10;;;1.10;;
12976;SDS011;6553;48.412;9.514;2023-07-22T03:34:34;1.10;;;1.10;;
12976;SDS011;6553;48.412;9.514;2023-07-22T03:37:00;1.17;;;1.17;;
12976;SDS011;6553;48.412;9.514;2023-07-22T03:39:26;1.50;;;1.40;;
12976;SDS011;6553;48.412;9.514;2023-07-22T03:41:52;1.55;;;1.45;;
12976;SDS011;6553;48.412;9.514;2023-07-22T03:44:17;1.48;;;1.38;;
12976;SDS011;6553;48.412;9.514;2023-07-22T03:46:43;1.25;;;1.15;;
12976;SDS011;6553;48.412;9.514;2023-07-22T03:49:09;1.33;;;1.23;;
12976;SDS011;6553;48.412;9.514;2023-07-22T03:51:35;1.45;;;1.27;;
12976;SDS011;6553;48.412;9.514;2023-07-22T03:54:01;1.58;;;1.40;;
12976;SDS011;6553;48.412;9.514;2023-07-22T03:56:26;1.50;;;1.40;;
12976;SDS011;6553;48.412;9.514;2023-07-22T03:58:52;1.30;;;1.20;;
12976;SDS011;6553;48.412;9.514;2023-07-22T04:01:18;1.30;;;1.20;;
12976;SDS011;6553;48.412;9.514;2023-07-22T04:03:44;1.38;;;1.27;;
12976;SDS011;6553;48.412;9.514;2023-07-22T04:06:10;1.48;;;1.38;;
12976;SDS011;6553;48.412;9.514;2023-07-22T04:08:37;1.40;;;1.30;;
12976;SDS011;6553;48.412;9.514;2023-07-22T04:11:03;1.20;;;1.10;;
12976;SDS011;6553;48.412;9.514;2023-07-22T04:13:28;2.05;;;1.40;;
12976;SDS011;6553;48.412;9.514;2023-07-22T04:15:54;1.65;;;1.38;;
12976;SDS011;6553;48.412;9.514;2023-07-22T04:18:20;1.08;;;1.00;;
12976;SDS011;6553;48.412;9.514;2023-07-22T04:20:46;1.48;;;1.38;;
12976;SDS011;6553;48.412;9.514;2023-07-22T04:23:15;1.30;;;1.20;;
12976;SDS011;6553;48.412;9.514;2023-07-22T04:25:42;1.50;;;1.40;;
12976;SDS011;6553;48.412;9.514;2023-07-22T04:28:09;1.20;;;1.10;;
12976;SDS011;6553;48.412;9.514;2023-07-22T04:30:35;1.20;;;1.10;;
12976;SDS011;6553;48.412;9.514;2023-07-22T04:33:03;1.23;;;1.13;;
12976;SDS011;6553;48.412;9.514;2023-07-22T04:35:33;1.50;;;1.40;;
12976;SDS011;6553;48.412;9.514;2023-07-22T04:38:03;1.60;;;1.45;;
12976;SDS011;6553;48.412;9.514;2023-07-22T04:40:29;1.45;;;1.35;;
12976;SDS011;6553;48.412;9.514;2023-07-22T04:42:55;1.83;;;1.13;;
12976;SDS011;6553;48.412;9.514;2023-07-22T04:45:22;1.40;;;1.30;;
12976;SDS011;6553;48.412;9.514;2023-07-22T04:47:52;1.67;;;1.58;;
12976;SDS011;6553;48.412;9.514;2023-07-22T04:50:18;1.30;;;1.20;;
12976;SDS011;6553;48.412;9.514;2023-07-22T04:52:47;1.60;;;1.50;;
12976;SDS011;6553;48.412;9.514;2023-07-22T04:55:16;1.30;;;1.20;;
12976;SDS011;6553;48.412;9.514;2023-07-22T04:57:42;1.58;;;1.33;;
12976;SDS011;6553;48.412;9.514;2023-07-22T05:00:10;1.30;;;1.20;;
12976;SDS011;6553;48.412;9.514;2023-07-22T05:02:45;1.00;;;1.00;;
12976;SDS011;6553;48.412;9.514;2023-07-22T05:05:15;1.63;;;1.52;;
12976;SDS011;6553;48.412;9.514;2023-07-22T05:07:41;1.00;;;1.00;;
12976;SDS011;6553;48.412;9.514;2023-07-22T05:10:08;1.40;;;1.30;;
12976;SDS011;6553;48.412;9.514;2023-07-22T05:12:38;1.50;;;1.40;;
12976;SDS011;6553;48.412;9.514;2023-07-22T05:15:05;1.38;;;1.27;;
12976;SDS011;6553;48.412;9.514;2023-07-22T05:17:32;1.52;;;1.42;;
12976;SDS011;6553;48.412;9.514;2023-07-22T05:19:58;1.40;;;1.30;;
12976;SDS011;6553;48.412;9.514;2023-07-22T05:22:24;1.23;;;1.13;;
12976;SDS011;6553;48.412;9.514;2023-07-22T05:24:50;1.23;;;1.17;;
12976;SDS011;6553;48.412;9.514;2023-07-22T05:27:16;1.50;;;1.40;;
12976;SDS011;6553;48.412;9.514;2023-07-22T05:29:43;1.50;;;1.40;;
12976;SDS011;6553;48.412;9.514;2023-07-22T05:32:10;1.40;;;1.30;;
12976;SDS011;6553;48.412;9.514;2023-07-22T05:34:36;1.77;;;1.45;;
12976;SDS011;6553;48.412;9.514;2023-07-22T05:37:02;1.33;;;1.23;;
12976;SDS011;6553;48.412;9.514;2023-07-22T05:39:28;1.40;;;1.30;;
12976;SDS011;6553;48.412;9.514;2023-07-22T05:41:54;1.45;;;1.35;;
12976;SDS011;6553;48.412;9.514;2023-07-22T05:44:20;1.40;;;1.30;;
12976;SDS011;6553;48.412;9.514;2023-07-22T05:46:47;1.40;;;1.30;;
12976;SDS011;6553;48.412;9.514;2023-07-22T05:49:13;1.42;;;1.33;;
12976;SDS011;6553;48.412;9.514;2023-07-22T05:51:38;1.95;;;1.42;;
12976;SDS011;6553;48.412;9.514;2023-07-22T05:54:04;1.33;;;1.23;;
12976;SDS011;6553;48.412;9.514;2023-07-22T05:56:30;1.10;;;1.10;;
12976;SDS011;6553;48.412;9.514;2023-07-22T05:58:56;1.33;;;1.23;;
12976;SDS011;6553;48.412;9.514;2023-07-22T06:01:25;1.25;;;1.15;;
12976;SDS011;6553;48.412;9.514;2023-07-22T06:03:51;1.40;;;1.30;;
12976;SDS011;6553;48.412;9.514;2023-07-22T06:06:17;1.25;;;1.15;;
12976;SDS011;6553;48.412;9.514;2023-07-22T06:08:43;1.50;;;1.40;;
12976;SDS011;6553;48.412;9.514;2023-07-22T06:11:09;1.30;;;1.20;;
12976;SDS011;6553;48.412;9.514;2023-07-22T06:13:35;1.33;;;1.23;;
12976;SDS011;6553;48.412;9.514;2023-07-22T06:16:01;1.42;;;1.33;;
12976;SDS011;6553;48.412;9.514;2023-07-22T06:18:28;1.30;;;1.20;;
12976;SDS011;6553;48.412;9.514;2023-07-22T06:20:53;1.38;;;1.27;;
12976;SDS011;6553;48.412;9.514;2023-07-22T06:23:19;1.10;;;1.10;;
12976;SDS011;6553;48.412;9.514;2023-07-22T06:25:45;1.60;;;1.50;;
12976;SDS011;6553;48.412;9.514;2023-07-22T06:28:11;1.98;;;1.40;;
12976;SDS011;6553;48.412;9.514;2023-07-22T06:30:36;1.50;;;1.40;;
12976;SDS011;6553;48.412;9.514;2023-07-22T06:33:02;1.55;;;1.35;;
12976;SDS011;6553;48.412;9.514;2023-07-22T06:35:28;1.40;;;1.30;;
12976;SDS011;6553;48.412;9.514;2023-07-22T06:37:54;1.48;;;1.38;;
12976;SDS011;6553;48.412;9.514;2023-07-22T06:40:20;1.58;;;1.48;;
12976;SDS011;6553;48.412;9.514;2023-07-22T06:42:45;1.50;;;1.40;;
12976;SDS011;6553;48.412;9.514;2023-07-22T06:45:11;1.40;;;1.30;;
12976;SDS011;6553;48.412;9.514;2023-07-22T06:47:37;2.20;;;1.38;;
12976;SDS011;6553;48.412;9.514;2023-07-22T06:50:03;1.52;;;1.38;;
12976;SDS011;6553;48.412;9.514;2023-07-22T06:52:30;1.50;;;1.40;;
12976;SDS011;6553;48.412;9.514;2023-07-22T06:54:57;1.27;;;1.17;;
12976;SDS011;6553;48.412;9.514;2023-07-22T06:57:23;1.30;;;1.20;;
12976;SDS011;6553;48.412;9.514;2023-07-22T06:59:51;1.33;;;1.23;;
12976;SDS011;6553;48.412;9.514;2023-07-22T07:02:20;1.40;;;1.30;;
12976;SDS011;6553;48.412;9.514;2023-07-22T07:04:47;1.50;;;1.40;;
12976;SDS011;6553;48.412;9.514;2023-07-22T07:07:13;1.63;;;1.42;;
12976;SDS011;6553;48.412;9.514;2023-07-22T07:09:40;1.45;;;1.35;;
12976;SDS011;6553;48.412;9.514;2023-07-22T07:12:06;1.70;;;1.60;;
12976;SDS011;6553;48.412;9.514;2023-07-22T07:14:33;1.92;;;1.45;;
12976;SDS011;6553;48.412;9.514;2023-07-22T07:16:59;1.67;;;1.40;;
12976;SDS011;6553;48.412;9.514;2023-07-22T07:19:25;1.70;;;1.60;;
12976;SDS011;6553;48.412;9.514;2023-07-22T07:21:53;1.45;;;1.35;;
12976;SDS011;6553;48.412;9.514;2023-07-22T07:24:18;1.42;;;1.33;;
12976;SDS011;6553;48.412;9.514;2023-07-22T07:26:44;1.50;;;1.40;;
12976;SDS011;6553;48.412;9.514;2023-07-22T07:29:10;1.42;;;1.33;;
12976;SDS011;6553;48.412;9.514;2023-07-22T07:31:37;1.30;;;1.20;;
12976;SDS011;6553;48.412;9.514;2023-07-22T07:34:03;1.27;;;1.17;;
12976;SDS011;6553;48.412;9.514;2023-07-22T07:36:29;1.35;;;1.25;;
12976;SDS011;6553;48.412;9.514;2023-07-22T07:38:56;1.00;;;1.00;;
12976;SDS011;6553;48.412;9.514;2023-07-22T07:41:22;1.60;;;1.50;;
12976;SDS011;6553;48.412;9.514;2023-07-22T07:43:48;1.33;;;1.23;;
12976;SDS011;6553;48.412;9.514;2023-07-22T07:48:52;1.38;;;1.27;;
12976;SDS011;6553;48.412;9.514;2023-07-22T07:51:23;1.52;;;1.42;;
12976;SDS011;6553;48.412;9.514;2023-07-22T07:53:52;1.55;;;1.45;;
12976;SDS011;6553;48.412;9.514;2023-07-22T07:56:19;1.73;;;1.63;;
12976;SDS011;6553;48.412;9.514;2023-07-22T07:58:48;1.50;;;1.40;;
12976;SDS011;6553;48.412;9.514;2023-07-22T08:01:16;1.60;;;1.42;;
12976;SDS011;6553;48.412;9.514;2023-07-22T08:03:42;1.30;;;1.20;;
12976;SDS011;6553;48.412;9.514;2023-07-22T08:06:10;1.50;;;1.40;;
12976;SDS011;6553;48.412;9.514;2023-07-22T08:08:38;1.70;;;1.50;;
12976;SDS011;6553;48.412;9.514;2023-07-22T08:13:33;1.20;;;1.10;;
12976;SDS011;6553;48.412;9.514;2023-07-22T08:16:02;1.17;;;1.10;;
12976;SDS011;6553;48.412;9.514;2023-07-22T08:18:30;2.13;;;1.52;;
12976;SDS011;6553;48.412;9.514;2023-07-22T08:20:57;1.52;;;1.42;;
12976;SDS011;6553;48.412;9.514;2023-07-22T08:23:23;1.50;;;1.40;;
12976;SDS011;6553;48.412;9.514;2023-07-22T08:25:49;1.20;;;1.13;;
12976;SDS011;6553;48.412;9.514;2023-07-22T08:28:15;1.30;;;1.20;;
12976;SDS011;6553;48.412;9.514;2023-07-22T08:30:42;1.40;;;1.30;;
12976;SDS011;6553;48.412;9.514;2023-07-22T08:33:10;1.02;;;1.02;;
12976;SDS011;6553;48.412;9.514;2023-07-22T08:35:39;1.27;;;1.17;;
12976;SDS011;6553;48.412;9.514;2023-07-22T08:38:06;1.40;;;1.30;;
12976;SDS011;6553;48.412;9.514;2023-07-22T08:40:34;1.63;;;1.30;;
12976;SDS011;6553;48.412;9.514;2023-07-22T08:43:05;1.38;;;1.27;;
12976;SDS011;6553;48.412;9.514;2023-07-22T08:45:35;1.40;;;1.30;;
12976;SDS011;6553;48.412;9.514;2023-07-22T08:48:06;2.35;;;1.27;;
12976;SDS011;6553;48.412;9.514;2023-07-22T08:50:45;1.27;;;1.17;;
12976;SDS011;6553;48.412;9.514;2023-07-22T08:53:17;1.42;;;1.33;;
12976;SDS011;6553;48.412;9.514;2023-07-22T08:55:44;1.40;;;1.30;;
12976;SDS011;6553;48.412;9.514;2023-07-22T08:58:11;1.52;;;1.40;;
12976;SDS011;6553;48.412;9.514;2023-07-22T09:00:39;1.30;;;1.20;;
12976;SDS011;6553;48.412;9.514;2023-07-22T09:03:05;3.42;;;1.30;;
12976;SDS011;6553;48.412;9.514;2023-07-22T09:05:32;1.73;;;1.30;;
12976;SDS011;6553;48.412;9.514;2023-07-22T09:08:01;1.48;;;1.38;;
12976;SDS011;6553;48.412;9.514;2023-07-22T09:10:29;1.60;;;1.50;;
12976;SDS011;6553;48.412;9.514;2023-07-22T09:12:55;1.23;;;1.13;;
12976;SDS011;6553;48.412;9.514;2023-07-22T09:15:22;1.40;;;1.30;;
12976;SDS011;6553;48.412;9.514;2023-07-22T09:17:49;1.50;;;1.40;;
12976;SDS011;6553;48.412;9.514;2023-07-22T09:20:15;2.17;;;1.23;;
12976;SDS011;6553;48.412;9.514;2023-07-22T09:22:48;2.10;;;1.52;;
12976;SDS011;6553;48.412;9.514;2023-07-22T09:25:17;1.25;;;1.15;;
12976;SDS011;6553;48.412;9.514;2023-07-22T09:27:54;1.30;;;1.20;;
12976;SDS011;6553;48.412;9.514;2023-07-22T09:33:05;1.88;;;1.70;;
12976;SDS011;6553;48.412;9.514;2023-07-22T09:38:15;1.50;;;1.40;;
12976;SDS011;6553;48.412;9.514;2023-07-22T09:40:49;1.30;;;1.20;;
12976;SDS011;6553;48.412;9.514;2023-07-22T09:43:15;1.50;;;1.40;;
12976;SDS011;6553;48.412;9.514;2023-07-22T09:45:41;1.30;;;1.20;;
12976;SDS011;6553;48.412;9.514;2023-07-22T09:48:12;1.35;;;1.25;;
12976;SDS011;6553;48.412;9.514;2023-07-22T09:50:37;1.75;;;1.25;;
12976;SDS011;6553;48.412;9.514;2023-07-22T09:53:04;1.45;;;1.35;;
12976;SDS011;6553;48.412;9.514;2023-07-22T09:55:31;1.40;;;1.30;;
12976;SDS011;6553;48.412;9.514;2023-07-22T09:57:59;1.33;;;1.17;;
12976;SDS011;6553;48.412;9.514;2023-07-22T10:00:29;2.28;;;1.50;;
12976;SDS011;6553;48.412;9.514;2023-07-22T10:02:58;1.50;;;1.38;;
12976;SDS011;6553;48.412;9.514;2023-07-22T10:05:27;1.67;;;1.50;;
12976;SDS011;6553;48.412;9.514;2023-07-22T10:07:57;1.63;;;1.15;;
12976;SDS011;6553;48.412;9.514;2023-07-22T10:10:31;1.20;;;1.20;;
12976;SDS011;6553;48.412;9.514;2023-07-22T10:13:04;1.42;;;1.33;;
12976;SDS011;6553;48.412;9.514;2023-07-22T10:15:34;1.60;;;1.50;;
12976;SDS011;6553;48.412;9.514;2023-07-22T10:18:03;1.45;;;1.35;;
12976;SDS011;6553;48.412;9.514;2023-07-22T10:20:30;1.90;;;1.45;;
12976;SDS011;6553;48.412;9.514;2023-07-22T10:22:59;2.78;;;1.20;;
12976;SDS011;6553;48.412;9.514;2023-07-22T10:25:26;2.22;;;1.40;;
12976;SDS011;6553;48.412;9.514;2023-07-22T10:27:52;1.10;;;1.10;;
12976;SDS011;6553;48.412;9.514;2023-07-22T10:30:19;1.50;;;1.40;;
12976;SDS011;6553;48.412;9.514;2023-07-22T10:32:46;1.30;;;1.20;;
12976;SDS011;6553;48.412;9.514;2023-07-22T10:35:21;1.85;;;1.20;;
12976;SDS011;6553;48.412;9.514;2023-07-22T10:38:18;1.23;;;1.15;;
12976;SDS011;6553;48.412;9.514;2023-07-22T10:43:17;1.05;;;1.05;;
12976;SDS011;6553;48.412;9.514;2023-07-22T10:45:55;1.70;;;1.25;;
12976;SDS011;6553;48.412;9.514;2023-07-22T10:48:27;1.70;;;1.25;;
12976;SDS011;6553;48.412;9.514;2023-07-22T10:53:44;1.38;;;1.27;;
12976;SDS011;6553;48.412;9.514;2023-07-22T10:56:13;1.63;;;1.40;;
12976;SDS011;6553;48.412;9.514;2023-07-22T11:04:13;1.80;;;1.50;;
12976;SDS011;6553;48.412;9.514;2023-07-22T11:12:02;1.50;;;1.40;;
12976;SDS011;6553;48.412;9.514;2023-07-22T11:17:05;1.10;;;1.10;;
12976;SDS011;6553;48.412;9.514;2023-07-22T11:19:36;1.58;;;1.48;;
12976;SDS011;6553;48.412;9.514;2023-07-22T11:22:03;1.40;;;1.30;;
12976;SDS011;6553;48.412;9.514;2023-07-22T11:24:31;2.00;;;1.40;;
12976;SDS011;6553;48.412;9.514;2023-07-22T11:27:02;1.58;;;1.48;;
12976;SDS011;6553;48.412;9.514;2023-07-22T11:29:30;2.75;;;1.50;;
12976;SDS011;6553;48.412;9.514;2023-07-22T11:31:56;1.63;;;1.40;;
12976;SDS011;6553;48.412;9.514;2023-07-22T11:34:23;1.45;;;1.33;;
12976;SDS011;6553;48.412;9.514;2023-07-22T11:36:50;1.45;;;1.35;;
12976;SDS011;6553;48.412;9.514;2023-07-22T11:39:19;1.30;;;1.20;;
12976;SDS011;6553;48.412;9.514;2023-07-22T11:41:48;1.40;;;1.30;;
12976;SDS011;6553;48.412;9.514;2023-07-22T11:44:17;1.67;;;1.58;;
12976;SDS011;6553;48.412;9.514;2023-07-22T11:46:58;1.60;;;1.50;;
12976;SDS011;6553;48.412;9.514;2023-07-22T11:49:35;1.40;;;1.30;;
12976;SDS011;6553;48.412;9.514;2023-07-22T11:52:07;1.75;;;1.25;;
12976;SDS011;6553;48.412;9.514;2023-07-22T11:54:37;1.27;;;1.17;;
12976;SDS011;6553;48.412;9.514;2023-07-22T11:57:14;1.40;;;1.30;;
12976;SDS011;6553;48.412;9.514;2023-07-22T11:59:49;1.63;;;1.52;;
12976;SDS011;6553;48.412;9.514;2023-07-22T12:02:17;1.42;;;1.33;;
12976;SDS011;6553;48.412;9.514;2023-07-22T12:04:53;1.55;;;1.45;;
12976;SDS011;6553;48.412;9.514;2023-07-22T12:07:35;1.50;;;1.40;;
12976;SDS011;6553;48.412;9.514;2023-07-22T12:10:03;1.40;;;1.30;;
12976;SDS011;6553;48.412;9.514;2023-07-22T12:12:32;2.15;;;1.65;;
12976;SDS011;6553;48.412;9.514;2023-07-22T12:15:02;1.50;;;1.40;;
12976;SDS011;6553;48.412;9.514;2023-07-22T12:20:30;2.38;;;1.60;;
12976;SDS011;6553;48.412;9.514;2023-07-22T12:22:59;1.70;;;1.50;;
12976;SDS011;6553;48.412;9.514;2023-07-22T12:25:25;1.65;;;1.40;;
12976;SDS011;6553;48.412;9.514;2023-07-22T12:27:51;1.30;;;1.20;;
12976;SDS011;6553;48.412;9.514;2023-07-22T12:30:17;1.50;;;1.40;;
12976;SDS011;6553;48.412;9.514;2023-07-22T12:32:43;1.30;;;1.20;;
12976;SDS011;6553;48.412;9.514;2023-07-22T12:35:09;1.50;;;1.40;;
12976;SDS011;6553;48.412;9.514;2023-07-22T12:37:35;1.60;;;1.50;;
12976;SDS011;6553;48.412;9.514;2023-07-22T12:40:02;1.40;;;1.30;;
12976;SDS011;6553;48.412;9.514;2023-07-22T12:42:33;1.88;;;1.40;;
12976;SDS011;6553;48.412;9.514;2023-07-22T12:45:01;1.63;;;1.50;;
12976;SDS011;6553;48.412;9.514;2023-07-22T12:47:28;1.70;;;1.60;;
12976;SDS011;6553;48.412;9.514;2023-07-22T12:49:54;1.50;;;1.40;;
12976;SDS011;6553;48.412;9.514;2023-07-22T12:52:20;1.75;;;1.65;;
12976;SDS011;6553;48.412;9.514;2023-07-22T12:54:46;1.60;;;1.50;;
12976;SDS011;6553;48.412;9.514;2023-07-22T12:57:11;1.85;;;1.50;;
12976;SDS011;6553;48.412;9.514;2023-07-22T12:59:37;1.67;;;1.58;;
12976;SDS011;6553;48.412;9.514;2023-07-22T13:02:03;2.05;;;1.38;;
12976;SDS011;6553;48.412;9.514;2023-07-22T13:04:29;1.70;;;1.60;;
12976;SDS011;6553;48.412;9.514;2023-07-22T13:06:55;1.50;;;1.40;;
12976;SDS011;6553;48.412;9.514;2023-07-22T13:09:21;1.40;;;1.30;;
12976;SDS011;6553;48.412;9.514;2023-07-22T13:11:46;2.03;;;1.60;;
12976;SDS011;6553;48.412;9.514;2023-07-22T13:14:12;1.50;;;1.40;;
12976;SDS011;6553;48.412;9.514;2023-07-22T13:16:39;2.20;;;1.73;;
12976;SDS011;6553;48.412;9.514;2023-07-22T13:19:05;1.63;;;1.52;;
12976;SDS011;6553;48.412;9.514;2023-07-22T13:21:31;2.00;;;1.80;;
12976;SDS011;6553;48.412;9.514;2023-07-22T13:23:56;2.63;;;1.83;;
12976;SDS011;6553;48.412;9.514;2023-07-22T13:26:22;1.77;;;1.67;;
12976;SDS011;6553;48.412;9.514;2023-07-22T13:28:48;1.77;;;1.67;;
12976;SDS011;6553;48.412;9.514;2023-07-22T13:31:15;1.77;;;1.67;;
12976;SDS011;6553;48.412;9.514;2023-07-22T13:33:40;1.65;;;1.52;;
12976;SDS011;6553;48.412;9.514;2023-07-22T13:36:06;1.75;;;1.63;;
12976;SDS011;6553;48.412;9.514;2023-07-22T13:38:34;1.73;;;1.60;;
12976;SDS011;6553;48.412;9.514;2023-07-22T13:41:00;2.03;;;1.77;;
12976;SDS011;6553;48.412;9.514;2023-07-22T13:43:25;1.70;;;1.48;;
12976;SDS011;6553;48.412;9.514;2023-07-22T13:45:53;1.83;;;1.73;;
12976;SDS011;6553;48.412;9.514;2023-07-22T13:48:19;1.75;;;1.65;;
12976;SDS011;6553;48.412;9.514;2023-07-22T13:50:44;1.70;;;1.60;;
12976;SDS011;6553;48.412;9.514;2023-07-22T13:53:10;1.75;;;1.65;;
12976;SDS011;6553;48.412;9.514;2023-07-22T13:55:36;1.80;;;1.70;;
12976;SDS011;6553;48.412;9.514;2023-07-22T13:58:02;1.80;;;1.65;;
12976;SDS011;6553;48.412;9.514;2023-07-22T14:00:28;1.52;;;1.42;;
12976;SDS011;6553;48.412;9.514;2023-07-22T14:02:54;1.70;;;1.60;;
12976;SDS011;6553;48.412;9.514;2023-07-22T14:05:19;2.17;;;1.98;;
12976;SDS011;6553;48.412;9.514;2023-07-22T14:07:45;1.73;;;1.63;;
12976;SDS011;6553;48.412;9.514;2023-07-22T14:10:11;1.80;;;1.70;;
12976;SDS011;6553;48.412;9.514;2023-07-22T14:12:37;2.38;;;2.05;;
12976;SDS011;6553;48.412;9.514;2023-07-22T14:15:03;1.73;;;1.63;;
12976;SDS011;6553;48.412;9.514;2023-07-22T14:17:29;2.20;;;2.00;;
12976;SDS011;6553;48.412;9.514;2023-07-22T14:19:58;2.08;;;1.70;;
12976;SDS011;6553;48.412;9.514;2023-07-22T14:22:24;3.50;;;2.10;;
12976;SDS011;6553;48.412;9.514;2023-07-22T14:24:50;2.28;;;1.90;;
12976;SDS011;6553;48.412;9.514;2023-07-22T14:27:16;2.40;;;1.60;;
12976;SDS011;6553;48.412;9.514;2023-07-22T14:29:41;1.67;;;1.58;;
12976;SDS011;6553;48.412;9.514;2023-07-22T14:32:07;1.70;;;1.60;;
12976;SDS011;6553;48.412;9.514;2023-07-22T14:34:34;1.80;;;1.70;;
12976;SDS011;6553;48.412;9.514;2023-07-22T14:37:00;2.10;;;1.90;;
12976;SDS011;6553;48.412;9.514;2023-07-22T14:39:26;2.15;;;1.90;;
12976;SDS011;6553;48.412;9.514;2023-07-22T14:41:52;2.00;;;1.85;;
12976;SDS011;6553;48.412;9.514;2023-07-22T14:44:18;1.80;;;1.70;;
12976;SDS011;6553;48.412;9.514;2023-07-22T14:46:45;2.22;;;2.05;;
12976;SDS011;6553;48.412;9.514;2023-07-22T14:49:11;2.35;;;2.15;;
12976;SDS011;6553;48.412;9.514;2023-07-22T14:51:36;1.90;;;1.80;;
12976;SDS011;6553;48.412;9.514;2023-07-22T14:54:02;2.40;;;1.80;;
12976;SDS011;6553;48.412;9.514;2023-07-22T14:56:29;3.90;;;2.15;;
12976;SDS011;6553;48.412;9.514;2023-07-22T14:58:54;2.20;;;2.00;;
12976;SDS011;6553;48.412;9.514;2023-07-22T15:01:23;3.05;;;1.95;;
12976;SDS011;6553;48.412;9.514;2023-07-22T15:03:49;2.10;;;1.90;;
12976;SDS011;6553;48.412;9.514;2023-07-22T15:06:15;1.98;;;1.77;;
12976;SDS011;6553;48.412;9.514;2023-07-22T15:08:42;2.20;;;1.95;;
12976;SDS011;6553;48.412;9.514;2023-07-22T15:11:07;2.13;;;1.92;;
12976;SDS011;6553;48.412;9.514;2023-07-22T15:13:33;1.98;;;1.88;;
12976;SDS011;6553;48.412;9.514;2023-07-22T15:15:59;2.42;;;2.22;;
12976;SDS011;6553;48.412;9.514;2023-07-22T15:18:25;2.10;;;1.90;;
12976;SDS011;6553;48.412;9.514;2023-07-22T15:20:51;2.42;;;2.15;;
12976;SDS011;6553;48.412;9.514;2023-07-22T15:23:17;2.28;;;2.05;;
12976;SDS011;6553;48.412;9.514;2023-07-22T15:25:44;2.40;;;2.20;;
12976;SDS011;6553;48.412;9.514;2023-07-22T15:28:09;2.53;;;2.33;;
12976;SDS011;6553;48.412;9.514;2023-07-22T15:30:35;2.22;;;2.03;;
12976;SDS011;6553;48.412;9.514;2023-07-22T15:33:01;2.47;;;2.28;;